Time;durP1;ratioP1;P1;durP2;ratioP2;P2;SDS_P1;SDS_P2;PMS_P1;PMS_P2;Temp;Humidity;BMP_temperature;BMP_pressure;BME280_temperature;BME280_humidity;BME280_pressure;Samples;Min_cycle;Max_cycle;Signal;HPM_P1;HPM_P2
2023/12/12 12:54:48;;;;;;;3.40;3.20;;;12.70;61.80;;;;;;21584;6531;222058;-73
2023/12/12 12:57:14;;;;;;;3.97;3.67;;;12.50;62.10;;;;;;21325;6603;301164;-73
2023/12/12 12:59:39;;;;;;;4.17;3.80;;;12.40;62.60;;;;;;21225;6603;297315;-72
2023/12/12 13:02:07;;;;;;;4.27;3.87;;;12.60;62.50;;;;;;21174;6652;301469;-72
2023/12/12 13:04:31;;;;;;;4.10;3.80;;;12.60;62.40;;;;;;21175;6652;272392;-72
2023/12/12 13:06:59;;;;;;;10.83;9.93;;;12.70;62.30;;;;;;21178;6652;301417;-72
2023/12/12 13:09:23;;;;;;;5.25;4.85;;;12.80;62.20;;;;;;21368;6652;66336;-73
2023/12/12 13:11:48;;;;;;;5.70;5.20;;;12.50;62.30;;;;;;21404;6652;66840;-73
2023/12/12 13:14:14;;;;;;;5.10;4.70;;;12.20;63.10;;;;;;21193;6652;301530;-72
2023/12/12 13:16:41;;;;;;;4.53;4.13;;;12.20;64.10;;;;;;21309;6680;67122;-72
2023/12/12 13:19:09;;;;;;;5.53;4.60;;;12.10;64.40;;;;;;21393;6652;67314;-73
2023/12/12 13:21:32;;;;;;;5.73;5.33;;;11.90;65.00;;;;;;21385;6652;66549;-73
2023/12/12 13:23:57;;;;;;;6.18;5.78;;;11.70;65.70;;;;;;21099;6680;303463;-73
2023/12/12 13:26:23;;;;;;;6.43;5.93;;;11.80;66.30;;;;;;21407;6652;66774;-73
2023/12/12 13:28:52;;;;;;;7.53;5.10;;;11.70;66.50;;;;;;21292;6680;66943;-73
2023/12/12 13:31:15;;;;;;;14.50;11.83;;;11.70;66.50;;;;;;21385;6653;66303;-72
2023/12/12 13:33:41;;;;;;;9.93;8.33;;;11.60;66.90;;;;;;21181;6653;295980;-73
2023/12/12 13:36:06;;;;;;;8.33;5.47;;;11.70;67.10;;;;;;21406;6653;67211;-74
2023/12/12 13:38:32;;;;;;;10.03;9.17;;;11.80;67.00;;;;;;21171;6653;302047;-73
2023/12/12 13:40:57;;;;;;;8.63;7.73;;;11.90;67.00;;;;;;21177;6653;293974;-73
2023/12/12 13:43:23;;;;;;;4.10;3.70;;;12.20;66.30;;;;;;21185;6653;303857;-73
2023/12/12 13:45:49;;;;;;;4.90;4.60;;;12.40;65.50;;;;;;21175;6653;322800;-72
2023/12/12 13:48:17;;;;;;;4.20;3.58;;;12.60;65.00;;;;;;21399;6653;67888;-72
2023/12/12 13:50:41;;;;;;;9.93;5.37;;;12.50;64.80;;;;;;21158;6653;273682;-72
2023/12/12 13:53:07;;;;;;;5.23;4.83;;;12.50;65.10;;;;;;21190;6653;274106;-72
2023/12/12 13:55:32;;;;;;;3.33;3.03;;;12.60;64.90;;;;;;21405;6653;67164;-72
2023/12/12 13:57:58;;;;;;;3.20;2.20;;;12.50;64.80;;;;;;21307;6680;67394;-72
2023/12/12 14:00:25;;;;;;;1.50;1.37;;;12.20;65.40;;;;;;21389;6652;68015;-73
2023/12/12 14:02:49;;;;;;;3.35;3.05;;;11.90;66.10;;;;;;21399;6652;66837;-74
2023/12/12 14:05:15;;;;;;;1.63;1.00;;;11.70;66.70;;;;;;21403;6651;66347;-74
2023/12/12 14:07:41;;;;;;;2.30;0.93;;;11.50;67.60;;;;;;21157;6652;272497;-73
2023/12/12 14:10:06;;;;;;;2.23;1.13;;;11.60;68.30;;;;;;21173;6652;274153;-73
2023/12/12 14:12:34;;;;;;;1.17;0.80;;;11.80;67.10;;;;;;21401;6652;71224;-73
2023/12/12 14:14:58;;;;;;;1.17;1.10;;;11.80;67.10;;;;;;21180;6652;301180;-73
2023/12/12 14:17:23;;;;;;;1.40;1.40;;;11.90;67.50;;;;;;21178;6652;301038;-73
2023/12/12 14:19:49;;;;;;;1.70;1.70;;;12.10;67.30;;;;;;21178;6652;302395;-73
2023/12/12 14:22:15;;;;;;;3.87;3.00;;;12.30;66.80;;;;;;21184;6652;301610;-75
2023/12/12 14:24:41;;;;;;;4.93;4.60;;;12.60;65.50;;;;;;21190;6652;277250;-74
2023/12/12 14:27:07;;;;;;;8.60;8.00;;;12.50;65.40;;;;;;21398;6652;66885;-74
2023/12/12 14:29:33;;;;;;;10.60;9.90;;;12.30;66.10;;;;;;21175;6652;272401;-76
2023/12/12 14:31:58;;;;;;;12.00;10.97;;;12.30;66.10;;;;;;21187;6652;273281;-74
2023/12/12 14:34:24;;;;;;;6.10;5.68;;;12.50;66.10;;;;;;21315;6434;130020;-78
2023/12/12 14:37:01;;;;;;;3.43;3.23;;;12.30;66.10;;;;;;20917;6745;119015;-74
2023/12/12 14:39:38;;;;;;;2.87;2.60;;;12.00;67.00;;;;;;20772;6753;117992;-74
2023/12/12 14:42:11;;;;;;;5.22;2.62;;;11.80;68.00;;;;;;20655;6772;336537;-75
2023/12/12 14:44:46;;;;;;;2.70;2.50;;;11.80;68.40;;;;;;20623;6764;278511;-72
2023/12/12 14:47:22;;;;;;;2.47;2.27;;;12.10;67.80;;;;;;20889;6760;117141;-74
2023/12/12 14:49:58;;;;;;;3.72;2.70;;;12.00;67.40;;;;;;20467;6765;338489;-73
2023/12/12 14:52:33;;;;;;;2.10;2.00;;;12.10;67.70;;;;;;20690;6748;307574;-74
2023/12/12 14:55:09;;;;;;;1.77;1.57;;;12.30;67.00;;;;;;20869;6763;117710;-73
2023/12/12 14:57:45;;;;;;;1.00;1.00;;;12.10;66.90;;;;;;20959;6726;117553;-74
2023/12/12 15:00:22;;;;;;;2.47;2.27;;;11.80;67.70;;;;;;20821;6711;117779;-73
2023/12/12 15:02:56;;;;;;;3.20;2.90;;;11.60;68.70;;;;;;20766;6726;303666;-75
2023/12/12 15:05:31;;;;;;;3.45;3.25;;;11.70;69.30;;;;;;20739;6726;309768;-77
2023/12/12 15:08:07;;;;;;;5.20;2.60;;;12.00;68.70;;;;;;20975;6726;117690;-74
2023/12/12 15:10:43;;;;;;;3.00;2.83;;;11.90;68.20;;;;;;20781;6782;118586;-73
2023/12/12 15:13:18;;;;;;;5.07;3.33;;;11.70;68.90;;;;;;20977;6726;116880;-74
2023/12/12 15:15:55;;;;;;;3.70;3.40;;;11.30;70.70;;;;;;20961;6726;116970;-73
2023/12/12 15:18:31;;;;;;;4.00;3.50;;;11.10;71.50;;;;;;20954;6725;117134;-73
2023/12/12 15:21:09;;;;;;;5.68;5.28;;;11.30;71.80;;;;;;20774;6711;334863;-73
2023/12/12 15:23:44;;;;;;;5.77;5.20;;;11.30;71.40;;;;;;20900;6741;117586;-73
2023/12/12 15:26:19;;;;;;;3.87;3.63;;;11.40;71.10;;;;;;20934;6740;117005;-73
2023/12/12 15:29:00;;;;;;;6.62;5.47;;;11.20;71.30;;;;;;20618;6755;294678;-73
2023/12/12 15:31:34;;;;;;;7.57;6.85;;;11.40;71.60;;;;;;20750;6723;304672;-73
2023/12/12 15:34:12;;;;;;;5.90;5.23;;;11.70;70.30;;;;;;20949;6723;119440;-73
2023/12/12 15:36:45;;;;;;;5.33;4.83;;;11.70;69.70;;;;;;20940;6723;116923;-73
2023/12/12 15:39:21;;;;;;;4.97;4.57;;;11.50;70.40;;;;;;20785;6738;116952;-73
2023/12/12 15:41:56;;;;;;;6.75;6.20;;;11.40;71.20;;;;;;20703;6738;335575;-73
2023/12/12 15:44:33;;;;;;;6.47;6.07;;;11.50;71.30;;;;;;20736;6740;306457;-73
2023/12/12 15:47:12;;;;;;;6.97;6.47;;;11.80;69.60;;;;;;20737;6740;306587;-73
2023/12/12 15:49:44;;;;;;;9.63;9.03;;;12.10;68.40;;;;;;20601;6738;278230;-74
2023/12/12 15:52:20;;;;;;;10.40;9.50;;;12.30;67.60;;;;;;20702;6753;338294;-75
2023/12/12 15:54:55;;;;;;;10.95;9.85;;;12.40;66.80;;;;;;20644;6770;336714;-75
2023/12/12 15:57:31;;;;;;;11.20;10.20;;;12.60;66.50;;;;;;20595;6757;280013;-76
2023/12/12 16:00:15;;;;;;;12.60;11.50;;;12.70;65.40;;;;;;20593;6757;308160;-76
2023/12/12 16:02:51;;;;;;;12.60;11.30;;;12.70;65.50;;;;;;20742;6749;277974;-73
2023/12/12 16:05:30;;;;;;;12.37;11.27;;;12.80;65.10;;;;;;20677;6752;328138;-72
2023/12/12 16:08:06;;;;;;;11.60;10.47;;;12.90;64.70;;;;;;20895;6746;118238;-74
2023/12/12 16:10:44;;;;;;;15.50;14.10;;;12.60;65.20;;;;;;20533;6746;279676;-76
2023/12/12 16:13:20;;;;;;;10.30;9.30;;;12.50;66.10;;;;;;20928;6742;117837;-73
2023/12/12 16:15:55;;;;;;;11.90;10.82;;;12.30;66.40;;;;;;20688;6742;278143;-73
2023/12/12 16:18:34;;;;;;;8.93;8.13;;;12.30;67.10;;;;;;20881;6742;117778;-73
2023/12/12 16:21:08;;;;;;;10.32;9.52;;;12.10;67.90;;;;;;20710;6742;276788;-74
2023/12/12 16:23:43;;;;;;;8.20;7.40;;;12.10;67.90;;;;;;20899;6742;118197;-72
2023/12/12 16:26:19;;;;;;;12.35;11.07;;;12.00;67.90;;;;;;20718;6742;276674;-74
2023/12/12 16:28:54;;;;;;;12.37;11.27;;;12.00;68.40;;;;;;20628;6742;279983;-73
2023/12/12 16:31:31;;;;;;;9.83;8.83;;;12.10;67.90;;;;;;20914;6741;117331;-74
2023/12/12 16:34:08;;;;;;;11.10;10.10;;;12.10;67.90;;;;;;20650;6752;292093;-72
2023/12/12 16:36:42;;;;;;;19.10;17.30;;;12.10;68.50;;;;;;20694;6746;278599;-72
2023/12/12 16:39:18;;;;;;;11.53;10.53;;;12.30;68.10;;;;;;20768;6762;118050;-72
2023/12/12 16:41:53;;;;;;;12.63;11.53;;;12.20;68.00;;;;;;20916;6737;118734;-73
2023/12/12 16:44:29;;;;;;;11.20;10.27;;;11.90;69.00;;;;;;20722;6737;276390;-73
2023/12/12 16:47:05;;;;;;;9.00;8.20;;;11.90;70.00;;;;;;20681;6752;301985;-73
2023/12/12 16:49:48;;;;;;;9.23;8.33;;;12.10;69.60;;;;;;20547;6752;279955;-75
2023/12/12 16:52:19;;;;;;;6.77;6.27;;;12.30;68.90;;;;;;20896;6752;116906;-74
2023/12/12 16:54:52;;;;;;;8.63;6.27;;;12.20;68.80;;;;;;20899;6752;117196;-74
2023/12/12 16:57:28;;;;;;;19.83;17.87;;;11.90;69.70;;;;;;20679;6752;306882;-75
2023/12/12 17:00:07;;;;;;;32.87;29.07;;;11.90;70.60;;;;;;20790;6752;117938;-76
2023/12/12 17:02:41;;;;;;;8.73;7.93;;;11.70;71.30;;;;;;20865;6740;117997;-74
2023/12/12 17:05:16;;;;;;;13.53;12.23;;;11.70;71.30;;;;;;20866;6753;117439;-75
2023/12/12 17:07:52;;;;;;;12.80;11.70;;;11.50;72.20;;;;;;20550;6768;336432;-73
2023/12/12 17:10:30;;;;;;;13.40;12.23;;;11.60;72.90;;;;;;20517;6753;307939;-74
2023/12/12 17:13:04;;;;;;;8.50;7.80;;;12.00;71.50;;;;;;20859;6749;118027;-75
2023/12/12 17:15:39;;;;;;;10.50;9.47;;;11.90;70.60;;;;;;20821;6764;118600;-74
2023/12/12 17:18:18;;;;;;;8.70;7.70;;;11.70;71.50;;;;;;20821;6767;117554;-74
2023/12/12 17:20:51;;;;;;;10.07;9.17;;;11.30;73.70;;;;;;20846;6761;117389;-73
2023/12/12 17:23:28;;;;;;;11.88;10.80;;;11.50;74.30;;;;;;20642;6761;307652;-74
2023/12/12 17:26:04;;;;;;;7.83;7.23;;;11.50;74.30;;;;;;20846;6763;117455;-73
2023/12/12 17:28:39;;;;;;;8.57;7.77;;;11.50;73.50;;;;;;20615;6748;310301;-73
2023/12/12 17:31:15;;;;;;;7.55;6.95;;;11.70;73.40;;;;;;20684;6753;280076;-73
2023/12/12 17:33:50;;;;;;;7.93;7.32;;;12.00;72.20;;;;;;20723;6747;276759;-73
2023/12/12 17:36:26;;;;;;;6.13;5.70;;;12.30;71.00;;;;;;20907;6747;116972;-73
2023/12/12 17:39:01;;;;;;;7.07;6.47;;;12.20;70.60;;;;;;20614;6747;296581;-73
2023/12/12 18:24:56;;;;;;;5.80;4.60;;;13.30;66.10;;;;;;20947;6544;278754;-74
2023/12/12 18:27:22;;;;;;;4.80;4.10;;;13.30;65.90;;;;;;20577;6834;279677;-74
2023/12/12 18:29:48;;;;;;;4.65;4.28;;;13.30;65.60;;;;;;20480;6821;280592;-74
2023/12/12 18:32:14;;;;;;;5.10;4.60;;;13.30;65.60;;;;;;20449;6877;282126;-74
2023/12/12 18:34:40;;;;;;;5.72;5.03;;;13.30;65.60;;;;;;20417;6877;310760;-74
2023/12/12 18:37:05;;;;;;;7.37;5.30;;;13.30;65.80;;;;;;20365;6910;309836;-73
2023/12/12 18:39:31;;;;;;;4.27;3.87;;;13.30;65.90;;;;;;20564;6910;118133;-73
2023/12/12 18:41:56;;;;;;;3.40;3.20;;;13.00;66.20;;;;;;20524;6910;120217;-73
2023/12/12 18:44:23;;;;;;;5.67;3.23;;;12.40;69.00;;;;;;20569;6910;117767;-74
2023/12/12 18:46:48;;;;;;;5.00;2.90;;;12.30;68.80;;;;;;20563;6908;118688;-74
2023/12/12 18:49:14;;;;;;;4.67;3.57;;;12.10;70.30;;;;;;20373;6891;310699;-74
2023/12/12 18:51:41;;;;;;;3.70;3.33;;;12.40;70.30;;;;;;20390;6890;339953;-74
2023/12/12 18:54:07;;;;;;;4.50;4.20;;;12.40;70.30;;;;;;20427;6890;309200;-74
2023/12/12 18:56:33;;;;;;;2.63;2.43;;;12.70;70.00;;;;;;20638;6891;117490;-75
2023/12/12 18:58:59;;;;;;;4.40;4.10;;;12.50;69.30;;;;;;20624;6890;117632;-74
2023/12/12 19:01:24;;;;;;;2.62;2.53;;;12.30;70.10;;;;;;20618;6890;117588;-75
2023/12/12 19:03:50;;;;;;;4.87;4.57;;;12.00;70.90;;;;;;20403;6890;282912;-75
2023/12/12 19:06:17;;;;;;;2.83;2.63;;;12.00;71.80;;;;;;20422;6890;304446;-75
2023/12/12 19:08:43;;;;;;;5.03;4.62;;;12.30;70.70;;;;;;20412;6889;292229;-75
2023/12/12 19:11:08;;;;;;;3.20;3.10;;;12.50;69.50;;;;;;20664;6876;118108;-75
2023/12/12 19:13:34;;;;;;;4.12;3.85;;;12.40;69.10;;;;;;20450;6876;310442;-75
2023/12/12 19:16:00;;;;;;;3.80;3.43;;;12.40;69.60;;;;;;20464;6876;280572;-75
2023/12/12 19:18:25;;;;;;;3.80;3.50;;;12.50;69.00;;;;;;20657;6876;121018;-75
2023/12/12 19:20:51;;;;;;;4.00;3.70;;;12.40;69.00;;;;;;20446;6876;308695;-74
2023/12/12 19:23:17;;;;;;;4.20;3.80;;;12.40;69.30;;;;;;20660;6876;117985;-74
2023/12/12 19:25:43;;;;;;;4.33;4.03;;;12.00;70.30;;;;;;20659;6876;127910;-73
2023/12/12 19:28:09;;;;;;;3.70;3.40;;;12.00;70.30;;;;;;20674;6875;118376;-73
2023/12/12 19:30:37;;;;;;;4.30;3.90;;;11.80;71.20;;;;;;20452;6875;310120;-73
2023/12/12 19:33:07;;;;;;;4.23;3.80;;;11.80;71.30;;;;;;20673;6875;117646;-74
2023/12/12 19:35:30;;;;;;;3.70;3.50;;;11.90;70.90;;;;;;20459;6874;310157;-73
2023/12/12 19:37:55;;;;;;;3.47;3.17;;;11.90;70.90;;;;;;20616;6875;117626;-73
2023/12/12 19:40:21;;;;;;;3.00;2.80;;;11.80;70.60;;;;;;20658;6875;118084;-74
2023/12/12 19:42:47;;;;;;;3.17;2.93;;;11.70;71.40;;;;;;20674;6875;118045;-73
2023/12/12 19:45:13;;;;;;;3.10;2.90;;;11.50;72.20;;;;;;20464;6875;331246;-73
2023/12/12 19:47:38;;;;;;;3.05;2.90;;;11.60;72.10;;;;;;20425;6875;309818;-72
2023/12/12 19:50:04;;;;;;;2.67;2.50;;;11.80;70.60;;;;;;20654;6875;117703;-73
2023/12/12 19:52:29;;;;;;;2.30;2.20;;;11.80;70.20;;;;;;20675;6875;117546;-72
2023/12/12 19:54:55;;;;;;;2.83;1.87;;;11.60;71.00;;;;;;20672;6875;117979;-74
2023/12/12 19:57:21;;;;;;;2.47;2.37;;;11.30;72.80;;;;;;20661;6875;118072;-73
2023/12/12 19:59:48;;;;;;;2.80;2.63;;;11.40;72.50;;;;;;20424;6875;309386;-74
2023/12/12 20:02:14;;;;;;;3.60;3.40;;;11.70;71.10;;;;;;20453;6875;338917;-73
2023/12/12 20:04:39;;;;;;;16.63;15.13;;;11.70;71.00;;;;;;20460;6875;307096;-74
2023/12/12 20:07:10;;;;;;;5.82;5.37;;;12.20;68.40;;;;;;20471;6875;280178;-74
2023/12/12 20:09:33;;;;;;;2.57;2.30;;;12.20;68.40;;;;;;20642;6875;118514;-74
2023/12/12 20:12:01;;;;;;;2.40;2.20;;;11.80;69.40;;;;;;20673;6875;118116;-73
2023/12/12 20:14:29;;;;;;;3.50;3.30;;;11.80;69.40;;;;;;20681;6875;117810;-73
2023/12/12 20:16:52;;;;;;;3.60;3.40;;;11.60;70.70;;;;;;20664;6875;117503;-73
2023/12/12 20:19:17;;;;;;;4.50;4.20;;;11.40;71.70;;;;;;20449;6875;340003;-73
2023/12/12 20:21:43;;;;;;;3.60;3.40;;;11.50;71.80;;;;;;20655;6875;120241;-74
2023/12/12 20:24:09;;;;;;;3.20;3.00;;;11.50;71.40;;;;;;20680;6875;118562;-73
2023/12/12 20:26:36;;;;;;;2.23;2.10;;;11.40;71.80;;;;;;20675;6875;118075;-72
2023/12/12 20:29:01;;;;;;;2.70;2.50;;;11.30;72.50;;;;;;20430;6875;325400;-73
2023/12/12 20:31:30;;;;;;;3.10;2.90;;;11.40;72.30;;;;;;20471;6875;308420;-75
2023/12/12 20:33:56;;;;;;;2.72;2.55;;;11.70;70.80;;;;;;20533;6631;279451;-74
2023/12/12 20:36:34;;;;;;;3.47;3.27;;;12.00;69.10;;;;;;20651;6761;297082;-75
2023/12/12 20:39:09;;;;;;;3.10;2.90;;;12.20;67.80;;;;;;20782;6758;117291;-74
2023/12/12 20:41:43;;;;;;;4.03;3.73;;;12.10;67.90;;;;;;20622;6761;307628;-74
2023/12/12 20:44:19;;;;;;;3.30;3.00;;;12.10;67.90;;;;;;20864;6758;117142;-75
2023/12/12 20:46:54;;;;;;;2.80;2.70;;;12.00;68.20;;;;;;20649;6761;334192;-75
2023/12/12 20:49:32;;;;;;;2.43;2.30;;;12.00;68.00;;;;;;20731;6758;117413;-75
2023/12/12 20:52:10;;;;;;;2.40;2.20;;;11.90;68.20;;;;;;20863;6760;118353;-75
2023/12/12 20:54:43;;;;;;;2.70;2.20;;;11.60;69.00;;;;;;20856;6758;117519;-74
2023/12/12 20:57:21;;;;;;;2.73;2.47;;;11.50;71.20;;;;;;20642;6758;310192;-75
2023/12/12 20:59:56;;;;;;;2.47;2.37;;;11.50;70.50;;;;;;20627;6777;119788;-74
2023/12/12 21:02:32;;;;;;;3.00;2.80;;;11.50;70.10;;;;;;20588;6774;337302;-75
2023/12/12 21:05:08;;;;;;;2.58;2.37;;;11.80;69.20;;;;;;20532;6795;308281;-75
2023/12/12 21:07:44;;;;;;;3.03;2.80;;;11.80;69.10;;;;;;20548;6783;306734;-75
2023/12/12 21:10:21;;;;;;;4.10;2.30;;;12.00;68.20;;;;;;20599;6789;117706;-74
2023/12/12 21:12:57;;;;;;;3.10;2.90;;;11.90;68.20;;;;;;20553;6785;286480;-75
2023/12/12 21:15:32;;;;;;;3.15;3.00;;;11.90;68.70;;;;;;20518;6785;340019;-75
2023/12/12 21:18:09;;;;;;;1.67;1.57;;;11.90;67.80;;;;;;20771;6786;119451;-75
2023/12/12 21:20:45;;;;;;;2.57;2.03;;;11.90;67.80;;;;;;20397;6844;309476;-75
2023/12/12 21:23:21;;;;;;;1.73;1.57;;;11.70;68.20;;;;;;20854;6769;118679;-75
2023/12/12 21:25:56;;;;;;;3.70;1.70;;;11.70;68.20;;;;;;20650;6754;306236;-75
2023/12/12 21:28:33;;;;;;;1.30;1.30;;;11.70;68.50;;;;;;20900;6739;117553;-75
2023/12/12 21:31:10;;;;;;;1.67;1.58;;;11.60;68.50;;;;;;20696;6745;306728;-76
2023/12/12 21:33:45;;;;;;;1.20;1.20;;;11.70;68.80;;;;;;20891;6745;118757;-75
2023/12/12 21:36:21;;;;;;;1.37;1.20;;;11.60;69.00;;;;;;20912;6745;117120;-75
2023/12/12 21:38:58;;;;;;;1.42;1.33;;;11.40;69.90;;;;;;20623;6745;307122;-75
2023/12/12 21:41:32;;;;;;;3.27;1.10;;;11.40;70.10;;;;;;20782;6756;117911;-75
2023/12/12 21:44:08;;;;;;;1.50;1.30;;;11.50;70.40;;;;;;20526;6802;279380;-75
2023/12/12 21:47:04;;;;;;;1.13;1.10;;;11.50;69.80;;;;;;20798;6784;119590;-75
2023/12/12 21:49:40;;;;;;;1.73;1.30;;;11.40;69.50;;;;;;20596;6799;119348;-75
2023/12/12 21:52:17;;;;;;;1.45;1.35;;;11.30;71.20;;;;;;20593;6788;339011;-77
2023/12/12 21:54:54;;;;;;;1.10;1.07;;;11.30;70.50;;;;;;20775;6791;118781;-75
2023/12/12 21:57:30;;;;;;;1.67;1.20;;;11.20;70.10;;;;;;20745;6790;118275;-75
2023/12/12 22:00:07;;;;;;;2.90;0.90;;;11.10;70.80;;;;;;20668;6766;117897;-75
2023/12/12 22:02:43;;;;;;;1.33;1.27;;;11.00;71.50;;;;;;20611;6763;309474;-75
2023/12/12 22:05:19;;;;;;;2.30;1.40;;;11.00;71.50;;;;;;20776;6776;118628;-76
2023/12/12 22:07:54;;;;;;;1.30;1.20;;;11.00;71.10;;;;;;20765;6768;117693;-75
2023/12/12 22:10:30;;;;;;;0.80;0.80;;;10.90;71.70;;;;;;20656;6772;117421;-75
2023/12/12 22:13:12;;;;;;;1.60;1.27;;;10.70;72.30;;;;;;20578;6784;305932;-75
2023/12/12 22:15:41;;;;;;;1.70;1.60;;;10.90;72.50;;;;;;20537;6784;311609;-75
2023/12/12 22:18:18;;;;;;;1.40;1.30;;;11.20;70.90;;;;;;20608;6772;278686;-75
2023/12/12 22:20:52;;;;;;;2.13;1.40;;;11.50;69.40;;;;;;20634;6761;308016;-75
2023/12/12 22:23:28;;;;;;;1.30;1.20;;;11.80;68.50;;;;;;20868;6761;118321;-75
2023/12/12 22:26:04;;;;;;;2.30;1.00;;;11.60;68.40;;;;;;20790;6780;117727;-77
2023/12/12 22:28:39;;;;;;;0.90;0.90;;;11.30;69.40;;;;;;20776;6776;118427;-76
2023/12/12 22:31:15;;;;;;;1.60;1.02;;;11.10;70.60;;;;;;20570;6776;309775;-77
2023/12/12 22:33:51;;;;;;;1.30;1.00;;;11.20;70.90;;;;;;20644;6778;278068;-74
2023/12/12 22:36:26;;;;;;;2.17;0.97;;;11.50;69.80;;;;;;20912;6742;117057;-73
2023/12/12 22:39:03;;;;;;;0.82;0.82;;;11.50;69.40;;;;;;20531;6776;280664;-76
2023/12/12 22:41:39;;;;;;;2.00;0.80;;;11.50;69.20;;;;;;20612;6776;278241;-74
2023/12/12 22:44:15;;;;;;;1.50;0.90;;;11.90;67.30;;;;;;20635;6776;309798;-78
2023/12/12 22:46:51;;;;;;;0.50;0.50;;;11.90;67.30;;;;;;20883;6762;69607;-76
2023/12/12 22:49:27;;;;;;;1.80;0.90;;;11.80;67.20;;;;;;20561;6762;317002;-75
2023/12/12 22:51:55;;;;;;;0.90;0.90;;;11.90;66.90;;;;;;20611;6780;279406;-74
2023/12/12 22:54:21;;;;;;;1.00;1.00;;;11.90;66.90;;;;;;20607;6837;278802;-75
2023/12/12 22:56:47;;;;;;;0.80;0.80;;;12.00;66.00;;;;;;20596;6837;308730;-75
2023/12/12 22:59:12;;;;;;;0.67;0.63;;;12.20;65.50;;;;;;20519;6837;309301;-75
2023/12/12 23:01:42;;;;;;;0.70;0.70;;;12.20;64.90;;;;;;20649;6894;68111;-75
2023/12/12 23:04:07;;;;;;;0.50;0.50;;;12.00;65.20;;;;;;20641;6894;68587;-75
2023/12/12 23:06:32;;;;;;;1.30;0.80;;;11.70;66.30;;;;;;20432;6894;306262;-75
2023/12/12 23:08:59;;;;;;;0.57;0.57;;;11.60;66.60;;;;;;20633;6892;68121;-75
2023/12/12 23:11:24;;;;;;;2.67;0.60;;;11.50;66.90;;;;;;20644;6893;89859;-75
2023/12/12 23:13:50;;;;;;;0.57;0.57;;;11.10;68.50;;;;;;20652;6893;69365;-74
2023/12/12 23:16:16;;;;;;;0.50;0.50;;;11.00;68.40;;;;;;20435;6893;309327;-75
2023/12/12 23:18:41;;;;;;;0.90;0.90;;;11.10;68.50;;;;;;20419;6893;308906;-75
2023/12/12 23:21:07;;;;;;;0.60;0.60;;;11.40;67.60;;;;;;20644;6894;68161;-75
2023/12/12 23:23:33;;;;;;;1.97;0.73;;;11.30;67.30;;;;;;20438;6894;309702;-75
2023/12/12 23:25:58;;;;;;;1.15;0.50;;;11.30;67.20;;;;;;20642;6894;69369;-74
2023/12/12 23:28:24;;;;;;;1.87;0.70;;;11.30;67.20;;;;;;20641;6894;73145;-74
2023/12/12 23:30:50;;;;;;;0.73;0.55;;;11.00;67.80;;;;;;20634;6894;68271;-74
2023/12/12 23:33:16;;;;;;;0.68;0.60;;;10.80;68.70;;;;;;20438;6894;309685;-74
2023/12/12 23:35:42;;;;;;;0.80;0.80;;;10.90;68.70;;;;;;20432;6894;280911;-74
2023/12/12 23:38:10;;;;;;;0.57;0.57;;;11.20;68.10;;;;;;20645;6894;68173;-73
2023/12/12 23:40:37;;;;;;;1.47;0.63;;;11.10;67.10;;;;;;20635;6894;93040;-75
2023/12/12 23:43:01;;;;;;;0.60;0.50;;;10.90;67.80;;;;;;20436;6894;325645;-74
2023/12/12 23:45:28;;;;;;;0.40;0.40;;;10.90;67.40;;;;;;20648;6894;70995;-74
2023/12/12 23:47:55;;;;;;;0.98;0.50;;;10.90;67.30;;;;;;20425;6894;309818;-73
2023/12/12 23:50:20;;;;;;;1.40;0.50;;;11.00;66.70;;;;;;20633;6894;67793;-74
2023/12/12 23:52:46;;;;;;;0.50;0.47;;;10.90;66.70;;;;;;20615;6894;68658;-73
2023/12/12 23:55:12;;;;;;;0.50;0.40;;;10.70;67.10;;;;;;20648;6894;68742;-73
2023/12/12 23:57:37;;;;;;;1.50;0.70;;;10.50;67.80;;;;;;20433;6894;281465;-74
